sensor_id;sensor_type;location;lat;lon;timestamp;temperature;humidity
52919;DHT22;38793;52.690;6.812;2022-07-23T00:00:00;15.60;99.90
52919;DHT22;38793;52.690;6.812;2022-07-23T00:02:26;15.50;99.90
52919;DHT22;38793;52.690;6.812;2022-07-23T00:04:51;15.50;99.90
52919;DHT22;38793;52.690;6.812;2022-07-23T00:07:17;15.50;99.90
52919;DHT22;38793;52.690;6.812;2022-07-23T00:09:42;15.50;99.90
52919;DHT22;38793;52.690;6.812;2022-07-23T00:12:08;15.50;99.90
52919;DHT22;38793;52.690;6.812;2022-07-23T00:14:33;15.50;99.90
52919;DHT22;38793;52.690;6.812;2022-07-23T00:16:59;15.50;99.90
52919;DHT22;38793;52.690;6.812;2022-07-23T00:19:25;15.50;99.90
52919;DHT22;38793;52.690;6.812;2022-07-23T00:21:51;15.40;99.90
52919;DHT22;38793;52.690;6.812;2022-07-23T00:24:17;15.40;99.90
52919;DHT22;38793;52.690;6.812;2022-07-23T00:26:42;15.40;99.90
52919;DHT22;38793;52.690;6.812;2022-07-23T00:29:08;15.40;99.90
52919;DHT22;38793;52.690;6.812;2022-07-23T00:31:33;15.40;99.90
52919;DHT22;38793;52.690;6.812;2022-07-23T00:33:59;15.40;99.90
52919;DHT22;38793;52.690;6.812;2022-07-23T00:36:27;15.30;99.90
52919;DHT22;38793;52.690;6.812;2022-07-23T00:38:53;15.20;99.90
52919;DHT22;38793;52.690;6.812;2022-07-23T00:41:19;15.20;99.90
52919;DHT22;38793;52.690;6.812;2022-07-23T00:43:45;15.20;99.90
52919;DHT22;38793;52.690;6.812;2022-07-23T00:46:10;15.20;99.90
52919;DHT22;38793;52.690;6.812;2022-07-23T00:48:36;15.20;99.90
52919;DHT22;38793;52.690;6.812;2022-07-23T00:51:02;15.20;99.90
52919;DHT22;38793;52.690;6.812;2022-07-23T00:53:28;15.20;99.90
52919;DHT22;38793;52.690;6.812;2022-07-23T00:55:54;15.20;99.90
52919;DHT22;38793;52.690;6.812;2022-07-23T00:58:20;15.10;99.90
52919;DHT22;38793;52.690;6.812;2022-07-23T01:00:46;15.00;99.90
52919;DHT22;38793;52.690;6.812;2022-07-23T01:03:11;15.10;99.90
52919;DHT22;38793;52.690;6.812;2022-07-23T01:05:37;15.10;99.90
52919;DHT22;38793;52.690;6.812;2022-07-23T01:08:03;15.10;99.90
52919;DHT22;38793;52.690;6.812;2022-07-23T01:10:30;15.10;99.90
52919;DHT22;38793;52.690;6.812;2022-07-23T01:15:28;15.10;99.90
52919;DHT22;38793;52.690;6.812;2022-07-23T01:17:53;15.10;99.90
52919;DHT22;38793;52.690;6.812;2022-07-23T01:20:19;15.10;99.90
52919;DHT22;38793;52.690;6.812;2022-07-23T01:22:45;15.00;99.90
52919;DHT22;38793;52.690;6.812;2022-07-23T01:25:11;15.00;99.90
52919;DHT22;38793;52.690;6.812;2022-07-23T01:27:37;15.00;99.90
52919;DHT22;38793;52.690;6.812;2022-07-23T01:30:03;15.00;99.90
52919;DHT22;38793;52.690;6.812;2022-07-23T01:32:29;15.10;99.90
52919;DHT22;38793;52.690;6.812;2022-07-23T01:34:55;15.00;99.90
52919;DHT22;38793;52.690;6.812;2022-07-23T01:37:20;15.00;99.90
52919;DHT22;38793;52.690;6.812;2022-07-23T01:39:46;15.00;99.90
52919;DHT22;38793;52.690;6.812;2022-07-23T01:42:11;15.00;99.90
52919;DHT22;38793;52.690;6.812;2022-07-23T01:44:37;15.00;99.90
52919;DHT22;38793;52.690;6.812;2022-07-23T01:47:02;15.00;99.90
52919;DHT22;38793;52.690;6.812;2022-07-23T01:49:28;15.00;99.90
52919;DHT22;38793;52.690;6.812;2022-07-23T01:51:54;15.00;99.90
52919;DHT22;38793;52.690;6.812;2022-07-23T01:54:27;15.00;99.90
52919;DHT22;38793;52.690;6.812;2022-07-23T01:56:52;15.00;99.90
52919;DHT22;38793;52.690;6.812;2022-07-23T01:59:18;15.00;99.90
52919;DHT22;38793;52.690;6.812;2022-07-23T02:01:43;15.00;99.90
52919;DHT22;38793;52.690;6.812;2022-07-23T02:04:09;14.90;99.90
52919;DHT22;38793;52.690;6.812;2022-07-23T02:06:34;14.90;99.90
52919;DHT22;38793;52.690;6.812;2022-07-23T02:09:00;14.90;99.90
52919;DHT22;38793;52.690;6.812;2022-07-23T02:11:26;14.90;99.90
52919;DHT22;38793;52.690;6.812;2022-07-23T02:13:51;14.90;99.90
52919;DHT22;38793;52.690;6.812;2022-07-23T02:16:17;14.90;99.90
52919;DHT22;38793;52.690;6.812;2022-07-23T02:18:42;14.90;99.90
52919;DHT22;38793;52.690;6.812;2022-07-23T02:21:08;14.90;99.90
52919;DHT22;38793;52.690;6.812;2022-07-23T02:23:33;14.90;99.90
52919;DHT22;38793;52.690;6.812;2022-07-23T02:25:59;14.90;99.90
52919;DHT22;38793;52.690;6.812;2022-07-23T02:28:24;14.90;99.90
52919;DHT22;38793;52.690;6.812;2022-07-23T02:30:50;14.90;99.90
52919;DHT22;38793;52.690;6.812;2022-07-23T02:33:16;14.90;99.90
52919;DHT22;38793;52.690;6.812;2022-07-23T02:35:41;14.90;99.90
52919;DHT22;38793;52.690;6.812;2022-07-23T02:38:07;14.90;99.90
52919;DHT22;38793;52.690;6.812;2022-07-23T02:40:32;14.90;99.90
52919;DHT22;38793;52.690;6.812;2022-07-23T02:42:58;14.80;99.90
52919;DHT22;38793;52.690;6.812;2022-07-23T02:45:24;14.80;99.90
52919;DHT22;38793;52.690;6.812;2022-07-23T02:47:49;14.80;99.90
52919;DHT22;38793;52.690;6.812;2022-07-23T02:50:15;14.70;99.90
52919;DHT22;38793;52.690;6.812;2022-07-23T02:52:40;14.70;99.90
52919;DHT22;38793;52.690;6.812;2022-07-23T02:55:06;14.60;99.90
52919;DHT22;38793;52.690;6.812;2022-07-23T02:57:32;14.60;99.90
52919;DHT22;38793;52.690;6.812;2022-07-23T02:59:58;14.60;99.90
52919;DHT22;38793;52.690;6.812;2022-07-23T03:02:23;14.50;99.90
52919;DHT22;38793;52.690;6.812;2022-07-23T03:04:49;14.50;99.90
52919;DHT22;38793;52.690;6.812;2022-07-23T03:07:16;14.50;99.90
52919;DHT22;38793;52.690;6.812;2022-07-23T03:09:41;14.50;99.90
52919;DHT22;38793;52.690;6.812;2022-07-23T03:12:07;14.40;99.90
52919;DHT22;38793;52.690;6.812;2022-07-23T03:14:33;14.40;99.90
52919;DHT22;38793;52.690;6.812;2022-07-23T03:16:58;14.40;99.90
52919;DHT22;38793;52.690;6.812;2022-07-23T03:19:25;14.30;99.90
52919;DHT22;38793;52.690;6.812;2022-07-23T03:21:51;14.20;99.90
52919;DHT22;38793;52.690;6.812;2022-07-23T03:24:16;14.20;99.90
52919;DHT22;38793;52.690;6.812;2022-07-23T03:26:43;14.20;99.90
52919;DHT22;38793;52.690;6.812;2022-07-23T03:29:09;14.20;99.90
52919;DHT22;38793;52.690;6.812;2022-07-23T03:31:35;14.10;99.90
52919;DHT22;38793;52.690;6.812;2022-07-23T03:34:01;14.10;99.90
52919;DHT22;38793;52.690;6.812;2022-07-23T03:36:26;14.10;99.90
52919;DHT22;38793;52.690;6.812;2022-07-23T03:38:52;14.00;99.90
52919;DHT22;38793;52.690;6.812;2022-07-23T03:41:19;13.90;99.90
52919;DHT22;38793;52.690;6.812;2022-07-23T03:43:45;13.90;99.90
52919;DHT22;38793;52.690;6.812;2022-07-23T03:46:10;13.90;99.90
52919;DHT22;38793;52.690;6.812;2022-07-23T03:48:36;13.80;99.90
52919;DHT22;38793;52.690;6.812;2022-07-23T03:51:02;13.80;99.90
52919;DHT22;38793;52.690;6.812;2022-07-23T03:53:28;13.80;99.90
52919;DHT22;38793;52.690;6.812;2022-07-23T03:55:53;13.80;99.90
52919;DHT22;38793;52.690;6.812;2022-07-23T03:58:19;13.80;99.90
52919;DHT22;38793;52.690;6.812;2022-07-23T04:00:45;13.80;99.90
52919;DHT22;38793;52.690;6.812;2022-07-23T04:03:10;13.80;99.90
52919;DHT22;38793;52.690;6.812;2022-07-23T04:05:36;13.80;99.90
52919;DHT22;38793;52.690;6.812;2022-07-23T04:08:02;13.80;99.90
52919;DHT22;38793;52.690;6.812;2022-07-23T04:10:27;13.80;99.90
52919;DHT22;38793;52.690;6.812;2022-07-23T04:12:53;13.70;99.90
52919;DHT22;38793;52.690;6.812;2022-07-23T04:15:18;13.70;99.90
52919;DHT22;38793;52.690;6.812;2022-07-23T04:17:44;13.70;99.90
52919;DHT22;38793;52.690;6.812;2022-07-23T04:20:11;13.70;99.90
52919;DHT22;38793;52.690;6.812;2022-07-23T04:22:37;13.70;99.90
52919;DHT22;38793;52.690;6.812;2022-07-23T04:25:02;13.60;99.90
52919;DHT22;38793;52.690;6.812;2022-07-23T04:27:28;13.60;99.90
52919;DHT22;38793;52.690;6.812;2022-07-23T04:29:54;13.60;99.90
52919;DHT22;38793;52.690;6.812;2022-07-23T04:32:19;13.60;99.90
52919;DHT22;38793;52.690;6.812;2022-07-23T04:34:45;13.60;99.90
52919;DHT22;38793;52.690;6.812;2022-07-23T04:37:10;13.60;99.90
52919;DHT22;38793;52.690;6.812;2022-07-23T04:39:36;13.60;99.90
52919;DHT22;38793;52.690;6.812;2022-07-23T04:42:01;13.60;99.90
52919;DHT22;38793;52.690;6.812;2022-07-23T04:44:27;13.70;99.90
52919;DHT22;38793;52.690;6.812;2022-07-23T04:46:53;13.70;99.90
52919;DHT22;38793;52.690;6.812;2022-07-23T04:49:18;13.80;99.90
52919;DHT22;38793;52.690;6.812;2022-07-23T04:51:44;13.80;99.90
52919;DHT22;38793;52.690;6.812;2022-07-23T04:54:09;13.90;99.90
52919;DHT22;38793;52.690;6.812;2022-07-23T04:56:35;13.90;99.90
52919;DHT22;38793;52.690;6.812;2022-07-23T04:59:00;14.00;99.90
52919;DHT22;38793;52.690;6.812;2022-07-23T05:01:26;14.00;99.90
52919;DHT22;38793;52.690;6.812;2022-07-23T05:03:51;14.10;99.90
52919;DHT22;38793;52.690;6.812;2022-07-23T05:06:17;14.10;99.90
52919;DHT22;38793;52.690;6.812;2022-07-23T05:08:42;14.10;99.90
52919;DHT22;38793;52.690;6.812;2022-07-23T05:11:08;14.20;99.90
52919;DHT22;38793;52.690;6.812;2022-07-23T05:13:34;14.20;99.90
52919;DHT22;38793;52.690;6.812;2022-07-23T05:15:59;14.30;99.90
52919;DHT22;38793;52.690;6.812;2022-07-23T05:18:25;14.30;99.90
52919;DHT22;38793;52.690;6.812;2022-07-23T05:20:50;14.40;99.90
52919;DHT22;38793;52.690;6.812;2022-07-23T05:23:16;14.50;99.90
52919;DHT22;38793;52.690;6.812;2022-07-23T05:25:41;14.60;99.90
52919;DHT22;38793;52.690;6.812;2022-07-23T05:28:07;14.60;99.90
52919;DHT22;38793;52.690;6.812;2022-07-23T05:30:33;14.70;99.90
52919;DHT22;38793;52.690;6.812;2022-07-23T05:32:58;14.80;99.90
52919;DHT22;38793;52.690;6.812;2022-07-23T05:35:24;14.90;99.90
52919;DHT22;38793;52.690;6.812;2022-07-23T05:37:49;15.00;99.90
52919;DHT22;38793;52.690;6.812;2022-07-23T05:40:18;15.00;99.90
52919;DHT22;38793;52.690;6.812;2022-07-23T05:42:43;15.10;99.90
52919;DHT22;38793;52.690;6.812;2022-07-23T05:45:09;15.10;99.90
52919;DHT22;38793;52.690;6.812;2022-07-23T05:47:40;15.20;99.90
52919;DHT22;38793;52.690;6.812;2022-07-23T05:50:06;15.30;99.90
52919;DHT22;38793;52.690;6.812;2022-07-23T05:52:32;15.40;99.90
52919;DHT22;38793;52.690;6.812;2022-07-23T05:54:57;15.50;99.90
52919;DHT22;38793;52.690;6.812;2022-07-23T05:57:23;15.50;99.90
52919;DHT22;38793;52.690;6.812;2022-07-23T05:59:48;15.60;99.90
52919;DHT22;38793;52.690;6.812;2022-07-23T06:02:14;15.70;99.90
52919;DHT22;38793;52.690;6.812;2022-07-23T06:04:39;15.80;99.90
52919;DHT22;38793;52.690;6.812;2022-07-23T06:07:05;15.90;99.90
52919;DHT22;38793;52.690;6.812;2022-07-23T06:09:30;16.00;99.90
52919;DHT22;38793;52.690;6.812;2022-07-23T06:11:56;16.10;99.90
52919;DHT22;38793;52.690;6.812;2022-07-23T06:14:21;16.20;99.90
52919;DHT22;38793;52.690;6.812;2022-07-23T06:16:47;16.20;99.90
52919;DHT22;38793;52.690;6.812;2022-07-23T06:19:13;16.30;99.90
52919;DHT22;38793;52.690;6.812;2022-07-23T06:21:39;16.30;99.90
52919;DHT22;38793;52.690;6.812;2022-07-23T06:24:04;16.30;99.90
52919;DHT22;38793;52.690;6.812;2022-07-23T06:26:30;16.30;99.90
52919;DHT22;38793;52.690;6.812;2022-07-23T06:28:55;16.30;99.90
52919;DHT22;38793;52.690;6.812;2022-07-23T06:31:21;16.40;99.90
52919;DHT22;38793;52.690;6.812;2022-07-23T06:33:47;16.50;99.90
52919;DHT22;38793;52.690;6.812;2022-07-23T06:36:12;16.70;99.90
52919;DHT22;38793;52.690;6.812;2022-07-23T06:38:38;16.80;99.90
52919;DHT22;38793;52.690;6.812;2022-07-23T06:41:03;16.80;99.90
52919;DHT22;38793;52.690;6.812;2022-07-23T06:43:30;16.90;99.90
52919;DHT22;38793;52.690;6.812;2022-07-23T06:45:56;16.90;99.90
52919;DHT22;38793;52.690;6.812;2022-07-23T06:48:22;17.00;99.90
52919;DHT22;38793;52.690;6.812;2022-07-23T06:50:48;17.10;99.90
52919;DHT22;38793;52.690;6.812;2022-07-23T06:53:13;17.20;99.90
52919;DHT22;38793;52.690;6.812;2022-07-23T06:55:39;17.30;99.90
52919;DHT22;38793;52.690;6.812;2022-07-23T06:58:05;17.40;99.90
52919;DHT22;38793;52.690;6.812;2022-07-23T07:00:31;17.50;99.90
52919;DHT22;38793;52.690;6.812;2022-07-23T07:02:58;17.50;99.90
52919;DHT22;38793;52.690;6.812;2022-07-23T07:05:23;17.60;99.90
52919;DHT22;38793;52.690;6.812;2022-07-23T07:07:51;17.70;99.90
52919;DHT22;38793;52.690;6.812;2022-07-23T07:10:16;17.80;99.90
52919;DHT22;38793;52.690;6.812;2022-07-23T07:12:43;17.80;99.90
52919;DHT22;38793;52.690;6.812;2022-07-23T07:15:08;17.90;99.90
52919;DHT22;38793;52.690;6.812;2022-07-23T07:17:34;18.00;99.90
52919;DHT22;38793;52.690;6.812;2022-07-23T07:20:00;18.10;99.90
52919;DHT22;38793;52.690;6.812;2022-07-23T07:22:25;18.20;99.90
52919;DHT22;38793;52.690;6.812;2022-07-23T07:24:51;18.20;99.90
52919;DHT22;38793;52.690;6.812;2022-07-23T07:27:16;18.20;99.90
52919;DHT22;38793;52.690;6.812;2022-07-23T07:29:42;18.30;99.90
52919;DHT22;38793;52.690;6.812;2022-07-23T07:32:07;18.30;99.90
52919;DHT22;38793;52.690;6.812;2022-07-23T07:34:33;18.40;99.90
52919;DHT22;38793;52.690;6.812;2022-07-23T07:36:58;18.50;99.90
52919;DHT22;38793;52.690;6.812;2022-07-23T07:39:24;18.50;99.90
52919;DHT22;38793;52.690;6.812;2022-07-23T07:41:50;18.60;99.90
52919;DHT22;38793;52.690;6.812;2022-07-23T07:44:15;18.80;99.90
52919;DHT22;38793;52.690;6.812;2022-07-23T07:46:41;18.90;99.90
52919;DHT22;38793;52.690;6.812;2022-07-23T07:49:07;19.00;99.90
52919;DHT22;38793;52.690;6.812;2022-07-23T07:51:33;19.10;99.90
52919;DHT22;38793;52.690;6.812;2022-07-23T07:53:58;19.20;99.90
52919;DHT22;38793;52.690;6.812;2022-07-23T07:56:24;19.10;99.90
52919;DHT22;38793;52.690;6.812;2022-07-23T07:58:49;19.00;99.90
52919;DHT22;38793;52.690;6.812;2022-07-23T08:01:15;19.00;99.90
52919;DHT22;38793;52.690;6.812;2022-07-23T08:03:42;19.10;99.90
52919;DHT22;38793;52.690;6.812;2022-07-23T08:06:08;19.10;99.90
52919;DHT22;38793;52.690;6.812;2022-07-23T08:08:33;19.30;99.90
52919;DHT22;38793;52.690;6.812;2022-07-23T08:10:59;19.30;99.90
52919;DHT22;38793;52.690;6.812;2022-07-23T08:13:25;19.50;99.90
52919;DHT22;38793;52.690;6.812;2022-07-23T08:15:50;19.60;99.90
52919;DHT22;38793;52.690;6.812;2022-07-23T08:18:18;19.60;99.90
52919;DHT22;38793;52.690;6.812;2022-07-23T08:20:44;19.70;99.90
52919;DHT22;38793;52.690;6.812;2022-07-23T08:23:10;19.60;99.90
52919;DHT22;38793;52.690;6.812;2022-07-23T08:25:40;19.70;99.40
52919;DHT22;38793;52.690;6.812;2022-07-23T08:28:11;19.70;99.20
52919;DHT22;38793;52.690;6.812;2022-07-23T08:30:38;19.90;99.60
52919;DHT22;38793;52.690;6.812;2022-07-23T08:33:07;20.00;99.20
52919;DHT22;38793;52.690;6.812;2022-07-23T08:35:35;20.20;99.40
52919;DHT22;38793;52.690;6.812;2022-07-23T08:38:05;20.20;99.00
52919;DHT22;38793;52.690;6.812;2022-07-23T08:40:34;20.30;98.80
52919;DHT22;38793;52.690;6.812;2022-07-23T08:43:04;20.30;98.30
52919;DHT22;38793;52.690;6.812;2022-07-23T08:45:30;20.20;97.70
52919;DHT22;38793;52.690;6.812;2022-07-23T08:48:00;20.10;97.90
52919;DHT22;38793;52.690;6.812;2022-07-23T08:50:26;20.20;98.10
52919;DHT22;38793;52.690;6.812;2022-07-23T08:52:53;20.30;98.20
52919;DHT22;38793;52.690;6.812;2022-07-23T08:55:20;20.40;98.10
52919;DHT22;38793;52.690;6.812;2022-07-23T08:57:48;20.40;97.70
52919;DHT22;38793;52.690;6.812;2022-07-23T09:00:15;20.40;97.70
52919;DHT22;38793;52.690;6.812;2022-07-23T09:02:41;20.40;97.90
52919;DHT22;38793;52.690;6.812;2022-07-23T09:05:11;20.50;97.40
52919;DHT22;38793;52.690;6.812;2022-07-23T09:07:38;20.50;97.20
52919;DHT22;38793;52.690;6.812;2022-07-23T09:10:23;20.60;97.80
52919;DHT22;38793;52.690;6.812;2022-07-23T09:12:49;20.70;97.50
52919;DHT22;38793;52.690;6.812;2022-07-23T09:15:14;20.80;97.40
52919;DHT22;38793;52.690;6.812;2022-07-23T09:17:42;20.90;96.60
52919;DHT22;38793;52.690;6.812;2022-07-23T09:20:13;20.90;96.50
52919;DHT22;38793;52.690;6.812;2022-07-23T09:22:47;21.00;96.70
52919;DHT22;38793;52.690;6.812;2022-07-23T09:25:16;21.10;96.40
52919;DHT22;38793;52.690;6.812;2022-07-23T09:28:06;21.20;96.90
52919;DHT22;38793;52.690;6.812;2022-07-23T09:30:33;21.30;96.10
52919;DHT22;38793;52.690;6.812;2022-07-23T09:33:15;21.30;96.20
52919;DHT22;38793;52.690;6.812;2022-07-23T09:35:50;21.30;95.70
52919;DHT22;38793;52.690;6.812;2022-07-23T09:38:17;21.20;95.50
52919;DHT22;38793;52.690;6.812;2022-07-23T09:40:44;21.10;95.90
52919;DHT22;38793;52.690;6.812;2022-07-23T09:43:10;21.00;95.60
52919;DHT22;38793;52.690;6.812;2022-07-23T09:45:35;20.90;95.70
52919;DHT22;38793;52.690;6.812;2022-07-23T09:48:16;20.90;95.30
52919;DHT22;38793;52.690;6.812;2022-07-23T09:50:43;21.00;95.90
52919;DHT22;38793;52.690;6.812;2022-07-23T09:53:10;21.00;96.10
52919;DHT22;38793;52.690;6.812;2022-07-23T09:55:36;21.00;96.00
52919;DHT22;38793;52.690;6.812;2022-07-23T09:58:07;21.00;95.60
52919;DHT22;38793;52.690;6.812;2022-07-23T10:00:42;21.00;95.40
52919;DHT22;38793;52.690;6.812;2022-07-23T10:03:11;21.00;95.60
52919;DHT22;38793;52.690;6.812;2022-07-23T10:05:38;21.00;95.50
52919;DHT22;38793;52.690;6.812;2022-07-23T10:08:07;21.00;95.30
52919;DHT22;38793;52.690;6.812;2022-07-23T10:10:34;20.90;95.60
52919;DHT22;38793;52.690;6.812;2022-07-23T10:13:00;20.90;95.90
52919;DHT22;38793;52.690;6.812;2022-07-23T10:15:44;21.00;95.80
52919;DHT22;38793;52.690;6.812;2022-07-23T10:18:10;21.00;95.80
52919;DHT22;38793;52.690;6.812;2022-07-23T10:20:36;21.10;95.20
52919;DHT22;38793;52.690;6.812;2022-07-23T10:23:10;21.30;95.20
52919;DHT22;38793;52.690;6.812;2022-07-23T10:26:12;21.40;95.20
52919;DHT22;38793;52.690;6.812;2022-07-23T10:29:02;21.60;95.20
52919;DHT22;38793;52.690;6.812;2022-07-23T10:31:58;21.70;95.20
52919;DHT22;38793;52.690;6.812;2022-07-23T10:34:41;21.70;94.70
52919;DHT22;38793;52.690;6.812;2022-07-23T10:40:12;21.90;94.70
52919;DHT22;38793;52.690;6.812;2022-07-23T10:42:38;22.00;94.40
52919;DHT22;38793;52.690;6.812;2022-07-23T10:45:26;22.00;94.80
52919;DHT22;38793;52.690;6.812;2022-07-23T10:47:52;21.90;94.20
52919;DHT22;38793;52.690;6.812;2022-07-23T10:50:28;21.80;94.60
52919;DHT22;38793;52.690;6.812;2022-07-23T10:58:00;21.80;93.90
52919;DHT22;38793;52.690;6.812;2022-07-23T11:00:28;21.90;94.10
52919;DHT22;38793;52.690;6.812;2022-07-23T11:03:02;22.10;95.10
52919;DHT22;38793;52.690;6.812;2022-07-23T11:05:44;22.20;93.50
52919;DHT22;38793;52.690;6.812;2022-07-23T11:08:15;22.10;93.60
52919;DHT22;38793;52.690;6.812;2022-07-23T11:26:45;22.20;92.90
52919;DHT22;38793;52.690;6.812;2022-07-23T11:31:57;22.30;93.50
52919;DHT22;38793;52.690;6.812;2022-07-23T11:34:39;22.30;93.30
52919;DHT22;38793;52.690;6.812;2022-07-23T11:37:08;22.40;92.90
52919;DHT22;38793;52.690;6.812;2022-07-23T11:39:34;22.40;93.30
52919;DHT22;38793;52.690;6.812;2022-07-23T11:42:01;22.40;93.30
52919;DHT22;38793;52.690;6.812;2022-07-23T11:44:37;22.50;93.40
52919;DHT22;38793;52.690;6.812;2022-07-23T11:47:04;22.50;92.60
52919;DHT22;38793;52.690;6.812;2022-07-23T11:49:31;22.60;92.70
52919;DHT22;38793;52.690;6.812;2022-07-23T11:52:04;22.60;92.40
52919;DHT22;38793;52.690;6.812;2022-07-23T11:54:31;22.60;92.70
52919;DHT22;38793;52.690;6.812;2022-07-23T11:57:00;22.70;92.60
52919;DHT22;38793;52.690;6.812;2022-07-23T11:59:27;22.80;92.30
52919;DHT22;38793;52.690;6.812;2022-07-23T12:02:01;22.90;92.10
52919;DHT22;38793;52.690;6.812;2022-07-23T12:07:32;23.10;91.40
52919;DHT22;38793;52.690;6.812;2022-07-23T12:10:00;23.10;91.60
52919;DHT22;38793;52.690;6.812;2022-07-23T12:12:26;23.00;91.60
52919;DHT22;38793;52.690;6.812;2022-07-23T12:17:18;23.10;91.10
52919;DHT22;38793;52.690;6.812;2022-07-23T12:19:44;23.20;92.10
52919;DHT22;38793;52.690;6.812;2022-07-23T12:22:10;23.20;92.20
52919;DHT22;38793;52.690;6.812;2022-07-23T12:24:55;23.20;92.10
52919;DHT22;38793;52.690;6.812;2022-07-23T12:27:22;23.20;91.30
52919;DHT22;38793;52.690;6.812;2022-07-23T12:29:48;23.30;91.60
52919;DHT22;38793;52.690;6.812;2022-07-23T12:32:25;23.30;91.60
52919;DHT22;38793;52.690;6.812;2022-07-23T12:35:03;23.40;90.90
52919;DHT22;38793;52.690;6.812;2022-07-23T12:37:41;23.40;90.70
52919;DHT22;38793;52.690;6.812;2022-07-23T12:40:35;23.40;91.20
52919;DHT22;38793;52.690;6.812;2022-07-23T12:43:10;23.40;90.90
52919;DHT22;38793;52.690;6.812;2022-07-23T12:46:03;23.40;90.50
52919;DHT22;38793;52.690;6.812;2022-07-23T12:48:34;23.20;90.20
52919;DHT22;38793;52.690;6.812;2022-07-23T12:51:26;23.20;90.80
52919;DHT22;38793;52.690;6.812;2022-07-23T12:53:53;23.20;90.30
52919;DHT22;38793;52.690;6.812;2022-07-23T12:56:30;23.20;91.20
52919;DHT22;38793;52.690;6.812;2022-07-23T12:59:06;23.40;91.10
52919;DHT22;38793;52.690;6.812;2022-07-23T13:01:35;23.50;90.70
52919;DHT22;38793;52.690;6.812;2022-07-23T13:04:18;23.50;90.80
52919;DHT22;38793;52.690;6.812;2022-07-23T13:06:45;23.40;90.50
52919;DHT22;38793;52.690;6.812;2022-07-23T13:09:16;23.50;91.00
52919;DHT22;38793;52.690;6.812;2022-07-23T13:11:43;23.60;90.60
52919;DHT22;38793;52.690;6.812;2022-07-23T13:14:09;23.70;91.10
52919;DHT22;38793;52.690;6.812;2022-07-23T13:16:34;23.70;90.20
52919;DHT22;38793;52.690;6.812;2022-07-23T13:19:00;23.60;89.80
52919;DHT22;38793;52.690;6.812;2022-07-23T13:21:27;23.50;90.20
52919;DHT22;38793;52.690;6.812;2022-07-23T13:23:53;23.50;90.50
52919;DHT22;38793;52.690;6.812;2022-07-23T13:26:19;23.40;89.00
52919;DHT22;38793;52.690;6.812;2022-07-23T13:28:45;23.40;90.10
52919;DHT22;38793;52.690;6.812;2022-07-23T13:31:10;23.30;90.20
52919;DHT22;38793;52.690;6.812;2022-07-23T13:33:36;23.40;89.70
52919;DHT22;38793;52.690;6.812;2022-07-23T13:36:02;23.40;90.10
52919;DHT22;38793;52.690;6.812;2022-07-23T13:38:27;23.50;90.50
52919;DHT22;38793;52.690;6.812;2022-07-23T13:40:54;23.50;89.60
52919;DHT22;38793;52.690;6.812;2022-07-23T13:43:23;23.60;89.20
52919;DHT22;38793;52.690;6.812;2022-07-23T13:45:50;23.70;90.10
52919;DHT22;38793;52.690;6.812;2022-07-23T13:48:17;23.70;90.00
52919;DHT22;38793;52.690;6.812;2022-07-23T13:50:43;23.70;89.30
52919;DHT22;38793;52.690;6.812;2022-07-23T13:53:12;23.60;90.10
52919;DHT22;38793;52.690;6.812;2022-07-23T13:55:39;23.50;89.40
52919;DHT22;38793;52.690;6.812;2022-07-23T13:58:06;23.50;90.10
52919;DHT22;38793;52.690;6.812;2022-07-23T14:00:34;23.50;90.40
52919;DHT22;38793;52.690;6.812;2022-07-23T14:02:59;23.50;90.20
52919;DHT22;38793;52.690;6.812;2022-07-23T14:05:25;23.60;90.20
52919;DHT22;38793;52.690;6.812;2022-07-23T14:07:52;23.70;90.00
52919;DHT22;38793;52.690;6.812;2022-07-23T14:10:19;23.80;89.90
52919;DHT22;38793;52.690;6.812;2022-07-23T14:12:45;23.70;88.80
52919;DHT22;38793;52.690;6.812;2022-07-23T14:15:12;23.70;88.70
52919;DHT22;38793;52.690;6.812;2022-07-23T14:17:39;23.70;88.50
52919;DHT22;38793;52.690;6.812;2022-07-23T14:20:06;23.70;88.20
52919;DHT22;38793;52.690;6.812;2022-07-23T14:22:33;23.70;89.10
52919;DHT22;38793;52.690;6.812;2022-07-23T14:24:58;23.60;88.80
52919;DHT22;38793;52.690;6.812;2022-07-23T14:27:25;23.60;89.70
52919;DHT22;38793;52.690;6.812;2022-07-23T14:29:51;23.70;89.00
52919;DHT22;38793;52.690;6.812;2022-07-23T14:32:17;23.70;88.60
52919;DHT22;38793;52.690;6.812;2022-07-23T14:34:42;23.70;89.80
52919;DHT22;38793;52.690;6.812;2022-07-23T14:37:09;23.70;89.30
52919;DHT22;38793;52.690;6.812;2022-07-23T14:39:37;23.70;89.00
52919;DHT22;38793;52.690;6.812;2022-07-23T14:42:03;23.60;89.00
52919;DHT22;38793;52.690;6.812;2022-07-23T14:44:28;23.60;88.40
52919;DHT22;38793;52.690;6.812;2022-07-23T14:46:54;23.50;89.40
52919;DHT22;38793;52.690;6.812;2022-07-23T14:49:20;23.50;89.40
52919;DHT22;38793;52.690;6.812;2022-07-23T14:51:45;23.50;88.70
52919;DHT22;38793;52.690;6.812;2022-07-23T14:54:11;23.60;88.90
52919;DHT22;38793;52.690;6.812;2022-07-23T14:56:37;23.70;88.10
52919;DHT22;38793;52.690;6.812;2022-07-23T14:59:04;23.70;88.60
52919;DHT22;38793;52.690;6.812;2022-07-23T15:01:29;23.80;89.80
52919;DHT22;38793;52.690;6.812;2022-07-23T15:03:55;23.90;89.40
52919;DHT22;38793;52.690;6.812;2022-07-23T15:06:21;23.90;89.20
52919;DHT22;38793;52.690;6.812;2022-07-23T15:08:46;23.90;88.50
52919;DHT22;38793;52.690;6.812;2022-07-23T15:11:12;23.90;88.00
52919;DHT22;38793;52.690;6.812;2022-07-23T15:13:38;23.90;87.70
52919;DHT22;38793;52.690;6.812;2022-07-23T15:16:04;23.90;88.70
52919;DHT22;38793;52.690;6.812;2022-07-23T15:18:30;23.80;88.10
52919;DHT22;38793;52.690;6.812;2022-07-23T15:20:56;23.70;88.20
52919;DHT22;38793;52.690;6.812;2022-07-23T15:23:22;23.60;88.40
52919;DHT22;38793;52.690;6.812;2022-07-23T15:25:48;23.60;88.90
52919;DHT22;38793;52.690;6.812;2022-07-23T15:28:13;23.50;88.40
52919;DHT22;38793;52.690;6.812;2022-07-23T15:30:39;23.50;88.80
52919;DHT22;38793;52.690;6.812;2022-07-23T15:33:05;23.50;88.30
52919;DHT22;38793;52.690;6.812;2022-07-23T15:35:32;23.60;88.00
52919;DHT22;38793;52.690;6.812;2022-07-23T15:37:57;23.50;87.90
52919;DHT22;38793;52.690;6.812;2022-07-23T15:40:23;23.60;88.60
52919;DHT22;38793;52.690;6.812;2022-07-23T15:42:49;23.60;88.10
52919;DHT22;38793;52.690;6.812;2022-07-23T15:45:15;23.60;88.70
52919;DHT22;38793;52.690;6.812;2022-07-23T15:47:41;23.60;87.60
52919;DHT22;38793;52.690;6.812;2022-07-23T15:50:08;23.60;88.80
52919;DHT22;38793;52.690;6.812;2022-07-23T15:52:35;23.70;88.60
52919;DHT22;38793;52.690;6.812;2022-07-23T15:55:00;23.60;88.50
52919;DHT22;38793;52.690;6.812;2022-07-23T15:57:26;23.60;88.50
52919;DHT22;38793;52.690;6.812;2022-07-23T15:59:51;23.60;87.50
52919;DHT22;38793;52.690;6.812;2022-07-23T16:02:17;23.60;88.10
52919;DHT22;38793;52.690;6.812;2022-07-23T16:04:43;23.60;88.50